createdAt,value
2022-12-09T00:01:07.588Z,19.85
2022-12-09T00:03:36.803Z,19.85
2022-12-09T00:06:09.292Z,19.82
2022-12-09T00:08:37.520Z,19.82
2022-12-09T00:11:07.570Z,19.81
2022-12-09T00:13:36.484Z,19.83
2022-12-09T00:16:07.979Z,19.83
2022-12-09T00:18:37.078Z,19.80
2022-12-09T00:21:16.355Z,19.83
2022-12-09T00:23:44.311Z,19.82
2022-12-09T00:26:14.442Z,19.83
2022-12-09T00:28:42.538Z,19.82
2022-12-09T00:31:15.013Z,19.83
2022-12-09T00:33:43.388Z,19.82
2022-12-09T00:36:14.660Z,19.81
2022-12-09T00:38:43.189Z,19.82
2022-12-09T00:41:14.141Z,19.82
2022-12-09T00:43:43.253Z,19.79
2022-12-09T00:46:12.001Z,19.82
2022-12-09T00:48:40.716Z,19.83
2022-12-09T00:51:10.205Z,19.82
2022-12-09T00:53:39.126Z,19.80
2022-12-09T00:56:08.417Z,19.80
2022-12-09T00:58:37.822Z,19.83
2022-12-09T01:01:06.469Z,19.84
2022-12-09T01:03:34.667Z,19.83
2022-12-09T01:06:08.273Z,19.83
2022-12-09T01:08:38.988Z,19.82
2022-12-09T01:11:12.179Z,19.76
2022-12-09T01:13:41.818Z,19.83
2022-12-09T01:16:16.727Z,19.83
2022-12-09T01:18:45.060Z,19.83
2022-12-09T01:21:13.456Z,19.83
2022-12-09T01:23:41.860Z,19.83
2022-12-09T01:26:10.628Z,19.80
2022-12-09T01:28:39.770Z,19.82
2022-12-09T01:31:11.163Z,19.83
2022-12-09T01:33:39.437Z,19.83
2022-12-09T01:36:10.041Z,19.81
2022-12-09T01:38:38.549Z,19.83
2022-12-09T01:41:07.141Z,19.84
2022-12-09T01:43:35.649Z,19.84
2022-12-09T01:46:04.106Z,19.82
2022-12-09T01:48:36.275Z,19.84
2022-12-09T01:51:08.891Z,19.79
2022-12-09T01:53:40.663Z,19.84
2022-12-09T01:56:13.860Z,19.83
2022-12-09T01:58:42.510Z,19.84
2022-12-09T02:01:10.557Z,19.83
2022-12-09T02:03:40.037Z,19.84
2022-12-09T02:06:08.611Z,19.84
2022-12-09T02:08:37.169Z,19.84
2022-12-09T02:11:15.483Z,19.83
2022-12-09T02:13:48.614Z,19.84
2022-12-09T02:16:20.115Z,19.84
2022-12-09T02:18:57.174Z,19.84
2022-12-09T02:21:32.366Z,19.83
2022-12-09T02:24:06.067Z,19.84
2022-12-09T02:26:40.799Z,19.83
2022-12-09T02:29:32.471Z,19.82
2022-12-09T02:32:19.978Z,19.83
2022-12-09T02:34:56.708Z,19.82
2022-12-09T02:37:28.568Z,19.82
2022-12-09T02:40:02.207Z,19.80
2022-12-09T02:42:35.793Z,19.79
2022-12-09T02:45:06.967Z,19.81
2022-12-09T02:47:40.730Z,19.82
2022-12-09T02:50:14.698Z,19.82
2022-12-09T02:52:45.043Z,19.83
2022-12-09T02:55:16.502Z,19.83
2022-12-09T02:57:44.660Z,19.82
2022-12-09T03:00:15.835Z,19.81
2022-12-09T03:02:47.172Z,19.81
2022-12-09T03:05:23.234Z,19.82
2022-12-09T03:08:01.156Z,19.82
2022-12-09T03:10:35.380Z,19.82
2022-12-09T03:13:09.555Z,19.83
2022-12-09T03:15:42.341Z,19.80
2022-12-09T03:18:15.488Z,19.82
2022-12-09T03:20:49.771Z,19.82
2022-12-09T03:23:21.482Z,19.82
2022-12-09T03:25:53.320Z,19.82
2022-12-09T03:28:25.000Z,19.83
2022-12-09T03:30:54.604Z,19.83
2022-12-09T03:33:24.688Z,19.83
2022-12-09T03:35:57.745Z,19.82
2022-12-09T03:38:30.043Z,19.81
2022-12-09T03:41:05.330Z,19.82
2022-12-09T03:43:38.853Z,19.81
2022-12-09T03:46:07.184Z,19.82
2022-12-09T03:48:35.695Z,19.82
2022-12-09T03:51:09.858Z,19.81
2022-12-09T03:53:43.607Z,19.81
2022-12-09T03:56:18.967Z,19.80
2022-12-09T03:58:49.716Z,19.81
2022-12-09T04:01:18.412Z,19.78
2022-12-09T04:03:50.207Z,19.82
2022-12-09T04:06:20.385Z,19.82
2022-12-09T04:08:48.640Z,19.81
2022-12-09T04:11:17.151Z,19.81
2022-12-09T04:13:45.111Z,19.81
2022-12-09T04:16:13.319Z,19.82
2022-12-09T04:18:41.617Z,19.82
2022-12-09T04:21:11.076Z,19.82
2022-12-09T04:23:43.173Z,19.82
2022-12-09T04:26:15.509Z,19.77
2022-12-09T04:28:44.083Z,19.57
2022-12-09T04:31:13.227Z,19.79
2022-12-09T04:33:42.284Z,19.83
2022-12-09T04:36:13.440Z,19.83
2022-12-09T04:38:44.156Z,19.83
2022-12-09T04:41:13.308Z,19.83
2022-12-09T04:43:42.111Z,19.84
2022-12-09T04:46:13.676Z,19.83
2022-12-09T04:48:42.478Z,19.84
2022-12-09T04:51:11.363Z,19.85
2022-12-09T04:53:39.569Z,19.84
2022-12-09T04:56:12.831Z,19.85
2022-12-09T04:58:41.650Z,19.85
2022-12-09T05:01:11.451Z,19.82
2022-12-09T05:03:40.572Z,19.85
2022-12-09T05:06:11.756Z,19.86
2022-12-09T05:08:40.548Z,19.85
2022-12-09T05:11:10.734Z,19.85
2022-12-09T05:13:39.115Z,19.78
2022-12-09T05:16:15.644Z,19.85
2022-12-09T05:18:45.666Z,19.85
2022-12-09T05:21:16.071Z,19.86
2022-12-09T05:23:45.116Z,19.84
2022-12-09T05:26:16.918Z,19.83
2022-12-09T05:28:45.680Z,19.84
2022-12-09T05:31:17.195Z,19.83
2022-12-09T05:33:45.827Z,19.84
2022-12-09T05:36:17.058Z,19.84
2022-12-09T05:38:45.780Z,19.84
2022-12-09T05:41:15.931Z,19.83
2022-12-09T05:43:44.147Z,19.84
2022-12-09T05:46:12.985Z,19.84
2022-12-09T05:48:41.707Z,19.85
2022-12-09T05:51:13.660Z,19.81
2022-12-09T05:53:41.687Z,19.85
2022-12-09T05:56:10.014Z,19.85
2022-12-09T05:58:39.760Z,19.82
2022-12-09T06:01:09.464Z,19.84
2022-12-09T06:03:38.513Z,19.84
2022-12-09T06:06:08.425Z,19.83
2022-12-09T06:08:37.103Z,19.83
2022-12-09T06:11:05.895Z,19.84
2022-12-09T06:13:34.110Z,19.84
2022-12-09T06:16:06.193Z,19.85
2022-12-09T06:18:34.698Z,19.84
2022-12-09T06:21:06.902Z,19.83
2022-12-09T06:23:36.820Z,19.84
2022-12-09T06:26:06.272Z,19.77
2022-12-09T06:28:35.387Z,19.84
2022-12-09T06:31:05.109Z,19.83
2022-12-09T06:36:21.377Z,19.84
2022-12-09T06:38:49.582Z,19.84
2022-12-09T06:41:17.944Z,19.84
2022-12-09T06:43:46.152Z,19.84
2022-12-09T06:46:17.777Z,20.02
2022-12-09T06:48:46.954Z,20.04
2022-12-09T06:51:15.655Z,20.07
2022-12-09T06:53:44.247Z,20.09
2022-12-09T06:56:14.914Z,20.09
2022-12-09T06:58:44.596Z,20.10
2022-12-09T07:01:17.248Z,20.10
2022-12-09T07:03:47.980Z,20.10
2022-12-09T07:06:25.103Z,20.10
2022-12-09T07:08:54.865Z,20.09
2022-12-09T07:11:23.586Z,20.10
2022-12-09T07:13:52.229Z,20.09
2022-12-09T07:16:22.906Z,20.09
2022-12-09T07:18:51.409Z,20.10
2022-12-09T07:21:22.140Z,20.10
2022-12-09T07:23:51.171Z,20.08
2022-12-09T07:26:20.648Z,20.10
2022-12-09T07:28:51.360Z,20.10
2022-12-09T07:31:23.475Z,20.12
2022-12-09T07:33:53.530Z,20.12
2022-12-09T07:36:23.138Z,20.13
2022-12-09T07:38:56.532Z,20.12
2022-12-09T07:41:25.233Z,20.11
2022-12-09T07:43:54.388Z,20.10
2022-12-09T07:46:26.057Z,20.08
2022-12-09T07:48:55.174Z,20.13
2022-12-09T07:51:24.499Z,20.11
2022-12-09T07:53:54.062Z,20.13
2022-12-09T07:56:24.780Z,20.13
2022-12-09T07:58:55.261Z,20.13
2022-12-09T08:01:27.678Z,20.11
2022-12-09T08:03:58.181Z,20.14
2022-12-09T08:06:28.483Z,20.15
2022-12-09T08:09:00.035Z,20.17
2022-12-09T08:11:30.941Z,20.18
2022-12-09T08:14:05.661Z,20.17
2022-12-09T08:16:39.298Z,19.98
2022-12-09T08:19:08.052Z,20.17
2022-12-09T08:21:36.933Z,20.16
2022-12-09T08:24:07.749Z,20.15
2022-12-09T08:26:37.489Z,20.16
2022-12-09T08:29:10.044Z,20.16
2022-12-09T08:31:42.695Z,20.16
2022-12-09T08:34:12.234Z,20.16
2022-12-09T08:36:40.827Z,20.16
2022-12-09T08:39:09.434Z,20.16
2022-12-09T08:41:39.987Z,20.19
2022-12-09T08:44:11.361Z,20.20
2022-12-09T08:46:43.468Z,20.20
2022-12-09T08:49:12.002Z,20.11
2022-12-09T08:51:41.254Z,20.22
2022-12-09T08:54:11.410Z,20.22
2022-12-09T08:56:40.199Z,20.18
2022-12-09T08:59:08.470Z,20.21
2022-12-09T09:01:37.301Z,20.22
2022-12-09T09:04:09.884Z,20.21
2022-12-09T09:06:41.464Z,20.19
2022-12-09T09:09:12.550Z,20.20
2022-12-09T09:11:41.428Z,20.19
2022-12-09T09:14:12.506Z,20.18
2022-12-09T09:16:44.289Z,20.19
2022-12-09T09:19:18.515Z,20.21
2022-12-09T09:21:47.156Z,20.19
2022-12-09T09:24:18.196Z,20.22
2022-12-09T09:26:47.773Z,20.22
2022-12-09T09:29:18.260Z,20.21
2022-12-09T09:31:48.706Z,20.21
2022-12-09T09:34:19.208Z,20.21
2022-12-09T09:36:50.592Z,20.19
2022-12-09T09:39:19.327Z,20.20
2022-12-09T09:41:53.491Z,20.21
2022-12-09T09:44:26.631Z,20.21
2022-12-09T09:46:56.566Z,20.22
2022-12-09T09:49:35.508Z,20.22
2022-12-09T09:52:08.702Z,20.21
2022-12-09T09:54:37.256Z,20.20
2022-12-09T09:57:14.117Z,20.20
2022-12-09T09:59:54.973Z,20.21
2022-12-09T10:02:53.355Z,20.21
2022-12-09T10:05:29.275Z,20.19
2022-12-09T10:08:05.016Z,20.21
2022-12-09T10:10:45.559Z,20.22
2022-12-09T10:13:30.914Z,20.21
2022-12-09T10:16:06.583Z,20.21
2022-12-09T10:18:40.445Z,20.18
2022-12-09T10:21:17.185Z,20.16
2022-12-09T10:23:47.161Z,20.20
2022-12-09T10:26:20.978Z,20.21
2022-12-09T10:28:54.239Z,19.99
2022-12-09T10:31:22.779Z,20.21
2022-12-09T10:33:51.454Z,20.20
2022-12-09T10:36:29.397Z,20.21
2022-12-09T10:39:02.340Z,20.21
2022-12-09T10:41:59.150Z,20.20
2022-12-09T10:44:29.049Z,20.20
2022-12-09T10:47:03.222Z,20.21
2022-12-09T10:49:32.995Z,20.20
2022-12-09T10:52:05.283Z,20.20
2022-12-09T10:54:37.920Z,20.20
2022-12-09T10:57:24.524Z,20.22
2022-12-09T11:00:02.044Z,20.22
2022-12-09T11:02:32.805Z,20.21
2022-12-09T11:05:23.392Z,20.22
2022-12-09T11:07:54.669Z,20.19
2022-12-09T11:10:25.755Z,20.23
2022-12-09T11:13:05.477Z,20.22
2022-12-09T11:15:38.997Z,20.22
2022-12-09T11:18:09.612Z,20.21
2022-12-09T11:20:38.702Z,20.21
2022-12-09T11:23:17.023Z,20.04
2022-12-09T11:25:54.747Z,20.21
2022-12-09T11:28:29.224Z,20.13
2022-12-09T11:33:52.052Z,20.15
2022-12-09T11:36:23.238Z,20.12
2022-12-09T11:39:08.108Z,20.10
2022-12-09T11:41:53.758Z,20.08
2022-12-09T11:44:27.736Z,20.02
2022-12-09T11:46:59.698Z,20.09
2022-12-09T11:49:29.714Z,20.09
2022-12-09T11:52:07.374Z,20.07
2022-12-09T11:54:45.055Z,20.09
2022-12-09T11:57:23.140Z,20.09
2022-12-09T11:59:56.596Z,20.07
2022-12-09T12:02:34.018Z,20.09
2022-12-09T12:05:07.834Z,20.11
2022-12-09T12:07:43.209Z,20.11
2022-12-09T12:10:18.953Z,20.12
2022-12-09T12:13:00.423Z,20.12
2022-12-09T12:15:39.090Z,20.12
2022-12-09T12:18:14.660Z,20.11
2022-12-09T12:20:58.155Z,20.11
2022-12-09T12:23:40.619Z,20.10
2022-12-09T12:26:15.256Z,20.11
2022-12-09T12:29:07.463Z,20.13
2022-12-09T12:32:05.360Z,20.11
2022-12-09T12:34:45.260Z,20.08
2022-12-09T12:37:32.306Z,20.07
2022-12-09T12:40:09.676Z,20.05
2022-12-09T12:43:06.572Z,20.03
2022-12-09T12:46:05.074Z,19.98
2022-12-09T12:48:43.368Z,19.99
2022-12-09T12:51:21.908Z,19.98
2022-12-09T12:53:58.109Z,19.97
2022-12-09T12:56:35.161Z,19.97
2022-12-09T12:59:13.120Z,19.97
2022-12-09T13:01:53.314Z,19.98
2022-12-09T13:04:25.417Z,19.92
2022-12-09T13:07:02.069Z,20.02
2022-12-09T13:09:40.371Z,20.00
2022-12-09T13:12:14.394Z,20.05
2022-12-09T13:14:53.491Z,20.02
2022-12-09T13:17:26.695Z,20.06
2022-12-09T13:19:59.853Z,20.08
2022-12-09T13:22:34.255Z,20.09
2022-12-09T13:25:23.623Z,20.08
2022-12-09T13:27:57.196Z,20.09
2022-12-09T13:30:36.212Z,20.09
2022-12-09T13:33:23.034Z,20.01
2022-12-09T13:35:57.193Z,20.08
2022-12-09T13:38:28.396Z,20.08
2022-12-09T13:40:56.625Z,20.09
2022-12-09T13:43:27.589Z,20.08
2022-12-09T13:45:59.174Z,20.10
2022-12-09T13:48:47.836Z,19.89
2022-12-09T13:51:17.731Z,20.10
2022-12-09T13:53:50.792Z,20.10
2022-12-09T13:56:30.546Z,20.12
2022-12-09T13:59:26.739Z,20.11
2022-12-09T14:02:01.479Z,20.13
2022-12-09T14:04:32.263Z,20.12
2022-12-09T14:07:10.427Z,20.13
2022-12-09T14:09:48.907Z,20.13
2022-12-09T14:12:55.581Z,20.14
2022-12-09T14:15:38.787Z,20.12
2022-12-09T14:18:32.747Z,20.14
2022-12-09T14:21:34.423Z,20.12
2022-12-09T14:24:42.474Z,20.13
2022-12-09T14:27:16.203Z,20.01
2022-12-09T14:29:50.500Z,20.13
2022-12-09T14:32:23.420Z,20.12
2022-12-09T14:35:06.126Z,20.11
2022-12-09T14:37:45.141Z,20.08
2022-12-09T14:40:53.061Z,20.05
2022-12-09T14:43:48.451Z,20.04
2022-12-09T14:46:25.579Z,20.03
2022-12-09T14:48:57.703Z,20.00
2022-12-09T14:51:31.913Z,20.00
2022-12-09T14:54:03.244Z,19.99
2022-12-09T14:56:33.557Z,19.98
2022-12-09T14:59:06.617Z,19.99
2022-12-09T15:01:50.196Z,19.99
2022-12-09T15:04:41.537Z,19.72
2022-12-09T15:07:17.082Z,19.99
2022-12-09T15:09:51.783Z,19.96
2022-12-09T15:12:22.175Z,19.98
2022-12-09T15:14:57.177Z,19.93
2022-12-09T15:17:28.898Z,19.96
2022-12-09T15:20:01.009Z,19.96
2022-12-09T15:22:33.475Z,19.96
2022-12-09T15:25:03.176Z,19.97
2022-12-09T15:27:31.571Z,19.96
2022-12-09T15:29:59.523Z,19.96
2022-12-09T15:32:29.308Z,19.97
2022-12-09T15:35:15.973Z,19.96
2022-12-09T15:37:46.303Z,19.94
2022-12-09T15:40:19.503Z,19.96
2022-12-09T15:42:50.578Z,19.94
2022-12-09T15:45:22.529Z,19.92
2022-12-09T15:47:54.764Z,19.92
2022-12-09T15:50:27.697Z,19.92
2022-12-09T15:53:01.900Z,19.92
2022-12-09T15:55:36.757Z,19.92
2022-12-09T15:58:09.176Z,19.90
2022-12-09T16:00:40.328Z,19.90
2022-12-09T16:03:09.160Z,19.91
2022-12-09T16:05:42.218Z,19.90
2022-12-09T16:08:12.094Z,19.90
2022-12-09T16:10:47.235Z,19.90
2022-12-09T16:13:17.334Z,19.90
2022-12-09T16:15:50.043Z,19.91
2022-12-09T16:18:24.095Z,19.89
2022-12-09T16:21:19.811Z,19.89
2022-12-09T16:23:52.862Z,19.90
2022-12-09T16:26:26.190Z,19.89
2022-12-09T16:28:56.737Z,19.89
2022-12-09T16:31:24.917Z,19.82
2022-12-09T16:33:53.038Z,19.89
2022-12-09T16:36:25.260Z,19.89
2022-12-09T16:39:27.992Z,19.89
2022-12-09T16:41:58.804Z,19.87
2022-12-09T16:44:30.992Z,19.67
2022-12-09T16:47:13.919Z,19.89
2022-12-09T16:49:44.295Z,19.89
2022-12-09T16:52:14.120Z,19.88
2022-12-09T16:54:44.715Z,19.87
2022-12-09T16:57:14.464Z,19.86
2022-12-09T16:59:43.071Z,19.86
2022-12-09T17:02:22.467Z,19.86
2022-12-09T17:04:51.926Z,19.85
2022-12-09T17:07:19.911Z,19.85
2022-12-09T17:09:49.272Z,19.85
2022-12-09T17:12:17.276Z,19.85
2022-12-09T17:14:45.263Z,19.86
2022-12-09T17:17:13.601Z,19.85
2022-12-09T17:19:42.122Z,19.86
2022-12-09T17:22:10.306Z,19.87
2022-12-09T17:24:38.740Z,19.85
2022-12-09T17:27:08.056Z,19.87
2022-12-09T17:29:36.901Z,19.87
2022-12-09T17:32:05.327Z,19.86
2022-12-09T17:34:33.379Z,19.86
2022-12-09T17:37:01.749Z,19.86
2022-12-09T17:39:30.860Z,19.84
2022-12-09T17:41:58.795Z,19.85
2022-12-09T17:44:28.288Z,19.85
2022-12-09T17:46:56.240Z,19.84
2022-12-09T17:49:24.474Z,19.84
2022-12-09T17:51:52.533Z,19.85
2022-12-09T17:54:20.467Z,19.83
2022-12-09T17:56:48.539Z,19.85
2022-12-09T17:59:18.097Z,19.86
2022-12-09T18:01:47.495Z,19.84
2022-12-09T18:04:16.447Z,19.77
2022-12-09T18:06:46.111Z,19.81
2022-12-09T18:09:16.343Z,19.84
2022-12-09T18:11:44.531Z,19.83
2022-12-09T18:14:12.797Z,19.83
2022-12-09T18:16:40.899Z,19.84
2022-12-09T18:19:15.057Z,19.83
2022-12-09T18:21:43.570Z,19.84
2022-12-09T18:24:11.717Z,19.84
2022-12-09T18:26:42.050Z,19.84
2022-12-09T18:29:11.108Z,19.84
2022-12-09T18:31:39.569Z,19.84
2022-12-09T18:34:07.899Z,19.84
2022-12-09T18:36:37.800Z,19.83
2022-12-09T18:39:06.477Z,19.83
2022-12-09T18:41:35.425Z,19.83
2022-12-09T18:44:05.357Z,19.83
2022-12-09T18:46:36.428Z,19.83
2022-12-09T18:49:08.396Z,19.83
2022-12-09T18:51:39.162Z,19.83
2022-12-09T18:54:08.099Z,19.68
2022-12-09T18:56:37.055Z,19.83
2022-12-09T18:59:07.394Z,19.83
2022-12-09T19:01:39.372Z,19.84
2022-12-09T19:04:09.781Z,19.84
2022-12-09T19:06:41.284Z,19.82
2022-12-09T19:09:11.427Z,19.81
2022-12-09T19:11:41.031Z,19.71
2022-12-09T19:14:10.415Z,19.85
2022-12-09T19:16:39.217Z,19.86
2022-12-09T19:19:10.412Z,19.87
2022-12-09T19:21:40.722Z,19.92
2022-12-09T19:24:13.811Z,19.94
2022-12-09T19:26:42.843Z,19.98
2022-12-09T19:29:11.592Z,19.96
2022-12-09T19:31:42.057Z,19.97
2022-12-09T19:34:15.067Z,20.01
2022-12-09T19:36:45.565Z,20.02
2022-12-09T19:39:14.877Z,20.01
2022-12-09T19:41:43.955Z,20.03
2022-12-09T19:44:15.374Z,20.04
2022-12-09T19:46:46.794Z,20.04
2022-12-09T19:49:16.652Z,20.05
2022-12-09T19:51:47.132Z,20.05
2022-12-09T19:54:16.555Z,20.04
2022-12-09T19:56:45.236Z,20.06
2022-12-09T19:59:13.981Z,20.06
2022-12-09T20:01:44.312Z,20.06
2022-12-09T20:04:47.065Z,19.86
2022-12-09T20:07:07.829Z,20.08
2022-12-09T20:09:36.240Z,20.07
2022-12-09T20:12:04.755Z,20.09
2022-12-09T20:14:32.744Z,20.10
2022-12-09T20:17:00.911Z,20.07
2022-12-09T20:19:29.067Z,20.10
2022-12-09T20:21:57.889Z,20.12
2022-12-09T20:24:30.482Z,19.83
2022-12-09T20:26:58.700Z,20.11
2022-12-09T20:29:27.631Z,20.10
2022-12-09T20:31:56.991Z,20.11
2022-12-09T20:34:26.269Z,20.11
2022-12-09T20:36:54.375Z,20.12
2022-12-09T20:39:22.698Z,20.05
2022-12-09T20:41:52.131Z,20.12
2022-12-09T20:44:23.255Z,20.11
2022-12-09T20:46:53.362Z,20.12
2022-12-09T20:49:26.241Z,20.10
2022-12-09T20:51:54.812Z,20.10
2022-12-09T20:54:22.833Z,20.07
2022-12-09T20:56:53.131Z,20.07
2022-12-09T20:59:21.371Z,20.05
2022-12-09T21:01:50.663Z,20.05
2022-12-09T21:04:18.798Z,20.03
2022-12-09T21:06:47.080Z,20.05
2022-12-09T21:09:18.809Z,20.02
2022-12-09T21:11:47.645Z,20.00
2022-12-09T21:14:19.174Z,19.97
2022-12-09T21:16:50.360Z,19.98
2022-12-09T21:19:25.096Z,19.97
2022-12-09T21:21:54.591Z,19.94
2022-12-09T21:24:24.309Z,19.97
2022-12-09T21:26:55.426Z,19.93
2022-12-09T21:29:31.311Z,19.96
2022-12-09T21:32:00.764Z,19.93
2022-12-09T21:34:28.887Z,19.91
2022-12-09T21:36:56.843Z,19.91
2022-12-09T21:39:24.798Z,19.90
2022-12-09T21:41:53.509Z,19.89
2022-12-09T21:44:22.461Z,19.88
2022-12-09T21:46:54.137Z,19.88
2022-12-09T21:49:24.617Z,19.88
2022-12-09T21:51:52.631Z,19.88
2022-12-09T21:54:20.577Z,19.89
2022-12-09T21:56:48.505Z,19.87
2022-12-09T21:59:19.010Z,19.89
2022-12-09T22:01:47.299Z,19.88
2022-12-09T22:04:17.563Z,19.87
2022-12-09T22:06:47.452Z,19.87
2022-12-09T22:09:15.748Z,19.87
2022-12-09T22:11:43.705Z,19.87
2022-12-09T22:14:12.313Z,19.86
2022-12-09T22:16:42.445Z,19.84
2022-12-09T22:19:13.831Z,19.85
2022-12-09T22:21:43.477Z,19.86
2022-12-09T22:24:12.961Z,19.86
2022-12-09T22:26:43.426Z,19.60
2022-12-09T22:29:13.373Z,19.86
2022-12-09T22:31:42.763Z,19.85
2022-12-09T22:34:13.705Z,19.84
2022-12-09T22:36:44.136Z,19.83
2022-12-09T22:39:14.721Z,19.76
2022-12-09T22:41:43.829Z,19.84
2022-12-09T22:44:14.697Z,19.85
2022-12-09T22:46:43.226Z,19.85
2022-12-09T22:49:13.302Z,19.84
2022-12-09T22:51:43.457Z,19.84
2022-12-09T22:54:11.868Z,19.83
2022-12-09T22:56:41.953Z,19.84
2022-12-09T22:59:10.692Z,19.83
2022-12-09T23:01:39.028Z,19.83
2022-12-09T23:04:08.895Z,19.81
2022-12-09T23:06:38.705Z,19.82
2022-12-09T23:09:14.549Z,19.83
2022-12-09T23:11:42.829Z,19.82
2022-12-09T23:14:10.872Z,19.56
2022-12-09T23:16:39.051Z,19.79
2022-12-09T23:19:07.484Z,19.79
2022-12-09T23:21:37.719Z,19.78
2022-12-09T23:24:11.437Z,19.79
2022-12-09T23:26:41.400Z,19.77
2022-12-09T23:29:13.641Z,19.79
2022-12-09T23:31:41.924Z,19.80
2022-12-09T23:34:11.534Z,19.80
2022-12-09T23:36:41.085Z,19.55
2022-12-09T23:39:12.432Z,19.78
2022-12-09T23:41:42.170Z,19.78
2022-12-09T23:44:11.805Z,19.78
2022-12-09T23:46:40.602Z,19.79
2022-12-09T23:49:08.847Z,19.78
2022-12-09T23:51:39.644Z,19.78
2022-12-09T23:54:10.909Z,19.79
2022-12-09T23:56:44.200Z,19.79
2022-12-09T23:59:13.840Z,19.79
